sensor_id;sensor_type;location;lat;lon;timestamp;temperature;humidity
15257;DHT22;7731;50.720;6.912;2023-12-14T00:01:20;8.00;99.90
15257;DHT22;7731;50.720;6.912;2023-12-14T00:03:50;7.80;99.90
15257;DHT22;7731;50.720;6.912;2023-12-14T00:06:20;7.70;99.90
15257;DHT22;7731;50.720;6.912;2023-12-14T00:08:51;7.70;99.90
15257;DHT22;7731;50.720;6.912;2023-12-14T00:11:24;7.70;99.90
15257;DHT22;7731;50.720;6.912;2023-12-14T00:13:54;7.60;99.90
15257;DHT22;7731;50.720;6.912;2023-12-14T00:16:25;7.60;99.90
15257;DHT22;7731;50.720;6.912;2023-12-14T00:18:55;7.60;99.90
15257;DHT22;7731;50.720;6.912;2023-12-14T00:21:25;7.60;99.90
15257;DHT22;7731;50.720;6.912;2023-12-14T00:23:56;7.60;99.90
15257;DHT22;7731;50.720;6.912;2023-12-14T00:26:28;7.60;99.90
15257;DHT22;7731;50.720;6.912;2023-12-14T00:28:59;7.50;99.90
15257;DHT22;7731;50.720;6.912;2023-12-14T00:31:29;7.50;99.90
15257;DHT22;7731;50.720;6.912;2023-12-14T00:33:59;7.50;99.90
15257;DHT22;7731;50.720;6.912;2023-12-14T00:36:33;7.50;99.90
15257;DHT22;7731;50.720;6.912;2023-12-14T00:39:04;7.60;99.90
15257;DHT22;7731;50.720;6.912;2023-12-14T00:41:37;7.60;99.90
15257;DHT22;7731;50.720;6.912;2023-12-14T00:44:08;7.60;99.90
15257;DHT22;7731;50.720;6.912;2023-12-14T00:46:38;7.60;99.90
15257;DHT22;7731;50.720;6.912;2023-12-14T00:49:08;7.60;99.90
15257;DHT22;7731;50.720;6.912;2023-12-14T00:51:39;7.70;99.90
15257;DHT22;7731;50.720;6.912;2023-12-14T00:54:09;7.70;99.90
15257;DHT22;7731;50.720;6.912;2023-12-14T00:56:42;7.70;99.90
15257;DHT22;7731;50.720;6.912;2023-12-14T00:59:15;7.70;99.90
15257;DHT22;7731;50.720;6.912;2023-12-14T01:01:45;7.90;99.90
15257;DHT22;7731;50.720;6.912;2023-12-14T01:04:16;8.00;99.90
15257;DHT22;7731;50.720;6.912;2023-12-14T01:06:46;8.00;99.90
15257;DHT22;7731;50.720;6.912;2023-12-14T01:09:16;8.10;99.90
15257;DHT22;7731;50.720;6.912;2023-12-14T01:11:52;8.20;99.90
15257;DHT22;7731;50.720;6.912;2023-12-14T01:14:22;8.30;99.90
15257;DHT22;7731;50.720;6.912;2023-12-14T01:16:52;8.30;99.90
15257;DHT22;7731;50.720;6.912;2023-12-14T01:19:23;8.30;99.90
15257;DHT22;7731;50.720;6.912;2023-12-14T01:21:54;8.30;99.90
15257;DHT22;7731;50.720;6.912;2023-12-14T01:24:24;8.30;99.90
15257;DHT22;7731;50.720;6.912;2023-12-14T01:26:57;8.20;99.90
15257;DHT22;7731;50.720;6.912;2023-12-14T01:29:28;8.20;99.90
15257;DHT22;7731;50.720;6.912;2023-12-14T01:31:58;8.30;99.90
15257;DHT22;7731;50.720;6.912;2023-12-14T01:34:28;8.40;99.90
15257;DHT22;7731;50.720;6.912;2023-12-14T01:36:59;8.50;99.90
15257;DHT22;7731;50.720;6.912;2023-12-14T01:39:29;8.50;99.90
15257;DHT22;7731;50.720;6.912;2023-12-14T01:42:03;8.50;99.90
15257;DHT22;7731;50.720;6.912;2023-12-14T01:44:34;8.50;99.90
15257;DHT22;7731;50.720;6.912;2023-12-14T01:47:04;8.50;99.90
15257;DHT22;7731;50.720;6.912;2023-12-14T01:49:34;8.50;99.90
15257;DHT22;7731;50.720;6.912;2023-12-14T01:52:05;8.40;99.90
15257;DHT22;7731;50.720;6.912;2023-12-14T01:54:36;8.40;99.90
15257;DHT22;7731;50.720;6.912;2023-12-14T01:57:09;8.40;99.90
15257;DHT22;7731;50.720;6.912;2023-12-14T01:59:41;8.30;99.90
15257;DHT22;7731;50.720;6.912;2023-12-14T02:02:11;8.30;99.90
15257;DHT22;7731;50.720;6.912;2023-12-14T02:04:42;8.10;99.90
15257;DHT22;7731;50.720;6.912;2023-12-14T02:07:12;8.10;99.90
15257;DHT22;7731;50.720;6.912;2023-12-14T02:09:42;8.10;99.90
15257;DHT22;7731;50.720;6.912;2023-12-14T02:12:15;8.10;99.90
15257;DHT22;7731;50.720;6.912;2023-12-14T02:14:48;8.30;99.90
15257;DHT22;7731;50.720;6.912;2023-12-14T02:17:20;8.20;99.90
15257;DHT22;7731;50.720;6.912;2023-12-14T02:19:51;8.10;99.90
15257;DHT22;7731;50.720;6.912;2023-12-14T02:22:21;8.10;99.90
15257;DHT22;7731;50.720;6.912;2023-12-14T02:24:56;8.10;99.90
15257;DHT22;7731;50.720;6.912;2023-12-14T02:27:26;8.10;99.90
15257;DHT22;7731;50.720;6.912;2023-12-14T02:29:57;8.00;99.90
15257;DHT22;7731;50.720;6.912;2023-12-14T02:32:27;8.10;99.90
15257;DHT22;7731;50.720;6.912;2023-12-14T02:34:57;8.10;99.90
15257;DHT22;7731;50.720;6.912;2023-12-14T02:37:28;8.10;99.90
15257;DHT22;7731;50.720;6.912;2023-12-14T02:40:05;8.00;99.90
15257;DHT22;7731;50.720;6.912;2023-12-14T02:42:36;8.10;99.90
15257;DHT22;7731;50.720;6.912;2023-12-14T02:45:10;8.20;99.90
15257;DHT22;7731;50.720;6.912;2023-12-14T02:47:40;8.10;99.90
15257;DHT22;7731;50.720;6.912;2023-12-14T02:50:10;8.20;99.90
15257;DHT22;7731;50.720;6.912;2023-12-14T02:52:44;8.10;99.90
15257;DHT22;7731;50.720;6.912;2023-12-14T02:55:17;8.20;99.90
15257;DHT22;7731;50.720;6.912;2023-12-14T02:57:47;8.40;99.90
15257;DHT22;7731;50.720;6.912;2023-12-14T03:00:17;8.40;99.90
15257;DHT22;7731;50.720;6.912;2023-12-14T03:02:48;8.40;99.90
15257;DHT22;7731;50.720;6.912;2023-12-14T03:05:19;8.40;99.90
15257;DHT22;7731;50.720;6.912;2023-12-14T03:07:49;8.40;99.90
15257;DHT22;7731;50.720;6.912;2023-12-14T03:10:22;8.40;99.90
15257;DHT22;7731;50.720;6.912;2023-12-14T03:12:52;8.50;99.90
15257;DHT22;7731;50.720;6.912;2023-12-14T03:15:23;8.50;99.90
15257;DHT22;7731;50.720;6.912;2023-12-14T03:17:53;8.50;99.90
15257;DHT22;7731;50.720;6.912;2023-12-14T03:20:23;8.60;99.90
15257;DHT22;7731;50.720;6.912;2023-12-14T03:22:53;8.50;99.90
15257;DHT22;7731;50.720;6.912;2023-12-14T03:25:26;8.40;99.90
15257;DHT22;7731;50.720;6.912;2023-12-14T03:27:58;8.50;99.90
15257;DHT22;7731;50.720;6.912;2023-12-14T03:30:28;8.50;99.90
15257;DHT22;7731;50.720;6.912;2023-12-14T03:32:59;8.50;99.90
15257;DHT22;7731;50.720;6.912;2023-12-14T03:35:29;8.30;99.90
15257;DHT22;7731;50.720;6.912;2023-12-14T03:38:03;8.30;99.90
15257;DHT22;7731;50.720;6.912;2023-12-14T03:40:37;8.30;99.90
15257;DHT22;7731;50.720;6.912;2023-12-14T03:43:10;8.30;99.90
15257;DHT22;7731;50.720;6.912;2023-12-14T03:45:40;8.30;99.90
15257;DHT22;7731;50.720;6.912;2023-12-14T03:48:11;8.30;99.90
15257;DHT22;7731;50.720;6.912;2023-12-14T03:50:42;8.20;99.90
15257;DHT22;7731;50.720;6.912;2023-12-14T03:53:13;8.10;99.90
15257;DHT22;7731;50.720;6.912;2023-12-14T03:55:46;8.10;99.90
15257;DHT22;7731;50.720;6.912;2023-12-14T03:58:19;8.20;99.90
15257;DHT22;7731;50.720;6.912;2023-12-14T04:00:49;8.20;99.90
15257;DHT22;7731;50.720;6.912;2023-12-14T04:03:20;8.20;99.90
15257;DHT22;7731;50.720;6.912;2023-12-14T04:05:52;8.10;99.90
15257;DHT22;7731;50.720;6.912;2023-12-14T04:08:22;8.00;99.90
15257;DHT22;7731;50.720;6.912;2023-12-14T04:10:57;8.00;99.90
15257;DHT22;7731;50.720;6.912;2023-12-14T04:13:27;7.90;99.90
15257;DHT22;7731;50.720;6.912;2023-12-14T04:15:57;7.80;99.90
15257;DHT22;7731;50.720;6.912;2023-12-14T04:18:27;7.90;99.90
15257;DHT22;7731;50.720;6.912;2023-12-14T04:20:58;7.80;99.90
15257;DHT22;7731;50.720;6.912;2023-12-14T04:23:28;7.80;99.90
15257;DHT22;7731;50.720;6.912;2023-12-14T04:26:04;7.90;99.90
15257;DHT22;7731;50.720;6.912;2023-12-14T04:28:36;7.80;99.90
15257;DHT22;7731;50.720;6.912;2023-12-14T04:31:07;7.80;99.90
15257;DHT22;7731;50.720;6.912;2023-12-14T04:33:37;7.90;99.90
15257;DHT22;7731;50.720;6.912;2023-12-14T04:36:10;7.80;99.90
15257;DHT22;7731;50.720;6.912;2023-12-14T04:38:40;7.90;99.90
15257;DHT22;7731;50.720;6.912;2023-12-14T04:41:16;7.80;99.90
15257;DHT22;7731;50.720;6.912;2023-12-14T04:43:48;7.90;99.90
15257;DHT22;7731;50.720;6.912;2023-12-14T04:46:19;7.90;99.90
15257;DHT22;7731;50.720;6.912;2023-12-14T04:48:49;7.80;99.90
15257;DHT22;7731;50.720;6.912;2023-12-14T04:51:20;7.90;99.90
15257;DHT22;7731;50.720;6.912;2023-12-14T04:53:50;7.80;99.90
15257;DHT22;7731;50.720;6.912;2023-12-14T04:56:23;8.00;99.90
15257;DHT22;7731;50.720;6.912;2023-12-14T04:58:53;7.80;99.90
15257;DHT22;7731;50.720;6.912;2023-12-14T05:01:24;7.90;99.90
15257;DHT22;7731;50.720;6.912;2023-12-14T05:03:58;7.90;99.90
15257;DHT22;7731;50.720;6.912;2023-12-14T05:06:29;7.80;99.90
15257;DHT22;7731;50.720;6.912;2023-12-14T05:09:02;7.90;99.90
15257;DHT22;7731;50.720;6.912;2023-12-14T05:11:36;7.90;99.90
15257;DHT22;7731;50.720;6.912;2023-12-14T05:14:06;7.90;99.90
15257;DHT22;7731;50.720;6.912;2023-12-14T05:16:39;7.90;99.90
15257;DHT22;7731;50.720;6.912;2023-12-14T05:19:12;7.80;99.90
15257;DHT22;7731;50.720;6.912;2023-12-14T05:21:42;7.80;99.90
15257;DHT22;7731;50.720;6.912;2023-12-14T05:24:12;7.60;99.90
15257;DHT22;7731;50.720;6.912;2023-12-14T05:26:45;7.50;99.90
15257;DHT22;7731;50.720;6.912;2023-12-14T05:29:16;7.50;99.90
15257;DHT22;7731;50.720;6.912;2023-12-14T05:31:51;7.50;99.90
15257;DHT22;7731;50.720;6.912;2023-12-14T05:34:22;7.40;99.90
15257;DHT22;7731;50.720;6.912;2023-12-14T05:36:54;7.40;99.90
15257;DHT22;7731;50.720;6.912;2023-12-14T05:39:24;7.40;99.90
15257;DHT22;7731;50.720;6.912;2023-12-14T05:41:57;7.40;99.90
15257;DHT22;7731;50.720;6.912;2023-12-14T05:44:27;7.40;99.90
15257;DHT22;7731;50.720;6.912;2023-12-14T05:47:00;7.50;99.90
15257;DHT22;7731;50.720;6.912;2023-12-14T05:49:31;7.50;99.90
15257;DHT22;7731;50.720;6.912;2023-12-14T05:52:01;7.50;99.90
15257;DHT22;7731;50.720;6.912;2023-12-14T05:54:32;7.40;99.90
15257;DHT22;7731;50.720;6.912;2023-12-14T05:57:05;7.30;99.90
15257;DHT22;7731;50.720;6.912;2023-12-14T05:59:35;7.40;99.90
15257;DHT22;7731;50.720;6.912;2023-12-14T06:02:06;7.40;99.90
15257;DHT22;7731;50.720;6.912;2023-12-14T06:04:36;7.30;99.90
15257;DHT22;7731;50.720;6.912;2023-12-14T06:07:11;7.40;99.90
15257;DHT22;7731;50.720;6.912;2023-12-14T06:09:44;7.30;99.90
15257;DHT22;7731;50.720;6.912;2023-12-14T06:12:17;7.20;99.90
15257;DHT22;7731;50.720;6.912;2023-12-14T06:14:50;7.40;99.90
15257;DHT22;7731;50.720;6.912;2023-12-14T06:17:20;7.30;99.90
15257;DHT22;7731;50.720;6.912;2023-12-14T06:19:53;7.20;99.90
15257;DHT22;7731;50.720;6.912;2023-12-14T06:22:24;7.30;99.90
15257;DHT22;7731;50.720;6.912;2023-12-14T06:24:54;7.30;99.90
15257;DHT22;7731;50.720;6.912;2023-12-14T06:27:28;7.20;99.90
15257;DHT22;7731;50.720;6.912;2023-12-14T06:29:58;7.10;99.90
15257;DHT22;7731;50.720;6.912;2023-12-14T06:32:31;6.90;99.90
15257;DHT22;7731;50.720;6.912;2023-12-14T06:35:03;7.00;99.90
15257;DHT22;7731;50.720;6.912;2023-12-14T06:37:34;6.90;99.90
15257;DHT22;7731;50.720;6.912;2023-12-14T06:40:06;6.80;99.90
15257;DHT22;7731;50.720;6.912;2023-12-14T06:42:41;6.90;99.90
15257;DHT22;7731;50.720;6.912;2023-12-14T06:45:11;6.90;99.90
15257;DHT22;7731;50.720;6.912;2023-12-14T06:47:41;7.00;99.90
15257;DHT22;7731;50.720;6.912;2023-12-14T06:50:13;7.10;99.90
15257;DHT22;7731;50.720;6.912;2023-12-14T06:52:45;7.10;99.90
15257;DHT22;7731;50.720;6.912;2023-12-14T06:55:15;7.00;99.90
15257;DHT22;7731;50.720;6.912;2023-12-14T06:57:48;6.90;99.90
15257;DHT22;7731;50.720;6.912;2023-12-14T07:00:21;6.80;99.90
15257;DHT22;7731;50.720;6.912;2023-12-14T07:02:51;6.80;99.90
15257;DHT22;7731;50.720;6.912;2023-12-14T07:05:21;6.80;99.90
15257;DHT22;7731;50.720;6.912;2023-12-14T07:07:52;6.80;99.90
15257;DHT22;7731;50.720;6.912;2023-12-14T07:10:25;6.70;99.90
15257;DHT22;7731;50.720;6.912;2023-12-14T07:12:58;6.80;99.90
15257;DHT22;7731;50.720;6.912;2023-12-14T07:15:28;6.70;99.90
15257;DHT22;7731;50.720;6.912;2023-12-14T07:17:59;6.80;99.90
15257;DHT22;7731;50.720;6.912;2023-12-14T07:20:32;6.90;99.90
15257;DHT22;7731;50.720;6.912;2023-12-14T07:23:02;6.80;99.90
15257;DHT22;7731;50.720;6.912;2023-12-14T07:25:32;6.70;99.90
15257;DHT22;7731;50.720;6.912;2023-12-14T07:28:05;6.70;99.90
15257;DHT22;7731;50.720;6.912;2023-12-14T07:30:36;6.70;99.90
15257;DHT22;7731;50.720;6.912;2023-12-14T07:33:06;6.80;99.90
15257;DHT22;7731;50.720;6.912;2023-12-14T07:35:39;6.60;99.90
15257;DHT22;7731;50.720;6.912;2023-12-14T07:38:10;6.50;99.90
15257;DHT22;7731;50.720;6.912;2023-12-14T07:40:43;6.60;99.90
15257;DHT22;7731;50.720;6.912;2023-12-14T07:43:16;6.80;99.90
15257;DHT22;7731;50.720;6.912;2023-12-14T07:45:47;6.70;99.90
15257;DHT22;7731;50.720;6.912;2023-12-14T07:48:17;6.80;99.90
15257;DHT22;7731;50.720;6.912;2023-12-14T07:50:48;6.70;99.90
15257;DHT22;7731;50.720;6.912;2023-12-14T07:53:19;6.70;99.90
15257;DHT22;7731;50.720;6.912;2023-12-14T07:55:49;6.60;99.90
15257;DHT22;7731;50.720;6.912;2023-12-14T07:58:22;6.60;99.90
15257;DHT22;7731;50.720;6.912;2023-12-14T08:00:55;6.60;99.90
15257;DHT22;7731;50.720;6.912;2023-12-14T08:03:26;6.50;99.90
15257;DHT22;7731;50.720;6.912;2023-12-14T08:05:56;6.80;99.90
15257;DHT22;7731;50.720;6.912;2023-12-14T08:08:26;6.80;99.90
15257;DHT22;7731;50.720;6.912;2023-12-14T08:10:57;6.80;99.90
15257;DHT22;7731;50.720;6.912;2023-12-14T08:13:30;6.80;99.90
15257;DHT22;7731;50.720;6.912;2023-12-14T08:16:00;6.80;99.90
15257;DHT22;7731;50.720;6.912;2023-12-14T08:18:32;6.60;99.90
15257;DHT22;7731;50.720;6.912;2023-12-14T08:21:06;6.70;99.90
15257;DHT22;7731;50.720;6.912;2023-12-14T08:23:39;6.70;99.90
15257;DHT22;7731;50.720;6.912;2023-12-14T08:26:09;6.60;99.90
15257;DHT22;7731;50.720;6.912;2023-12-14T08:28:43;6.60;99.90
15257;DHT22;7731;50.720;6.912;2023-12-14T08:31:14;6.70;99.90
15257;DHT22;7731;50.720;6.912;2023-12-14T08:33:44;6.70;99.90
15257;DHT22;7731;50.720;6.912;2023-12-14T08:36:19;6.70;99.90
15257;DHT22;7731;50.720;6.912;2023-12-14T08:38:49;6.80;99.90
15257;DHT22;7731;50.720;6.912;2023-12-14T08:41:20;6.70;99.90
15257;DHT22;7731;50.720;6.912;2023-12-14T08:43:55;6.60;99.90
15257;DHT22;7731;50.720;6.912;2023-12-14T08:46:25;6.60;99.90
15257;DHT22;7731;50.720;6.912;2023-12-14T08:48:58;6.70;99.90
15257;DHT22;7731;50.720;6.912;2023-12-14T08:51:28;6.70;99.90
15257;DHT22;7731;50.720;6.912;2023-12-14T08:53:59;6.70;99.90
15257;DHT22;7731;50.720;6.912;2023-12-14T08:56:29;6.80;99.90
15257;DHT22;7731;50.720;6.912;2023-12-14T08:59:02;6.90;99.90
15257;DHT22;7731;50.720;6.912;2023-12-14T09:01:36;6.80;99.90
15257;DHT22;7731;50.720;6.912;2023-12-14T09:04:07;6.70;99.90
15257;DHT22;7731;50.720;6.912;2023-12-14T09:06:37;6.90;99.90
15257;DHT22;7731;50.720;6.912;2023-12-14T09:09:09;6.80;99.90
15257;DHT22;7731;50.720;6.912;2023-12-14T09:11:39;6.90;99.90
15257;DHT22;7731;50.720;6.912;2023-12-14T09:14:12;6.70;99.90
15257;DHT22;7731;50.720;6.912;2023-12-14T09:16:45;6.60;99.90
15257;DHT22;7731;50.720;6.912;2023-12-14T09:19:15;6.50;99.90
15257;DHT22;7731;50.720;6.912;2023-12-14T09:21:46;6.30;99.90
15257;DHT22;7731;50.720;6.912;2023-12-14T09:24:16;6.10;99.90
15257;DHT22;7731;50.720;6.912;2023-12-14T09:26:47;6.00;99.90
15257;DHT22;7731;50.720;6.912;2023-12-14T09:29:22;6.00;99.90
15257;DHT22;7731;50.720;6.912;2023-12-14T09:31:53;6.10;99.90
15257;DHT22;7731;50.720;6.912;2023-12-14T09:34:23;6.30;99.90
15257;DHT22;7731;50.720;6.912;2023-12-14T09:36:54;6.30;99.90
15257;DHT22;7731;50.720;6.912;2023-12-14T09:39:24;6.30;99.90
15257;DHT22;7731;50.720;6.912;2023-12-14T09:42:02;6.30;99.90
15257;DHT22;7731;50.720;6.912;2023-12-14T09:44:37;6.20;99.90
15257;DHT22;7731;50.720;6.912;2023-12-14T09:47:10;6.10;99.90
15257;DHT22;7731;50.720;6.912;2023-12-14T09:49:41;6.10;99.90
15257;DHT22;7731;50.720;6.912;2023-12-14T09:52:12;6.10;99.90
15257;DHT22;7731;50.720;6.912;2023-12-14T09:54:43;6.20;99.90
15257;DHT22;7731;50.720;6.912;2023-12-14T09:57:13;6.20;99.90
15257;DHT22;7731;50.720;6.912;2023-12-14T09:59:53;6.20;99.90
15257;DHT22;7731;50.720;6.912;2023-12-14T10:02:26;6.10;99.90
15257;DHT22;7731;50.720;6.912;2023-12-14T10:04:57;6.20;99.90
15257;DHT22;7731;50.720;6.912;2023-12-14T10:07:27;6.20;99.90
15257;DHT22;7731;50.720;6.912;2023-12-14T10:10:09;6.20;99.90
15257;DHT22;7731;50.720;6.912;2023-12-14T10:12:51;6.20;99.90
15257;DHT22;7731;50.720;6.912;2023-12-14T10:15:26;6.30;99.90
15257;DHT22;7731;50.720;6.912;2023-12-14T10:17:59;6.20;99.90
15257;DHT22;7731;50.720;6.912;2023-12-14T10:20:29;6.30;99.90
15257;DHT22;7731;50.720;6.912;2023-12-14T10:22:59;6.20;99.90
15257;DHT22;7731;50.720;6.912;2023-12-14T10:25:33;6.30;99.90
15257;DHT22;7731;50.720;6.912;2023-12-14T10:28:05;6.30;99.90
15257;DHT22;7731;50.720;6.912;2023-12-14T10:30:39;6.30;99.90
15257;DHT22;7731;50.720;6.912;2023-12-14T10:33:10;6.50;99.90
15257;DHT22;7731;50.720;6.912;2023-12-14T10:35:41;6.50;99.90
15257;DHT22;7731;50.720;6.912;2023-12-14T10:38:15;6.50;99.90
15257;DHT22;7731;50.720;6.912;2023-12-14T10:40:48;6.40;99.90
15257;DHT22;7731;50.720;6.912;2023-12-14T10:43:20;6.40;99.90
15257;DHT22;7731;50.720;6.912;2023-12-14T10:46:15;6.30;99.90
15257;DHT22;7731;50.720;6.912;2023-12-14T10:48:47;6.30;99.90
15257;DHT22;7731;50.720;6.912;2023-12-14T10:51:21;6.30;99.90
15257;DHT22;7731;50.720;6.912;2023-12-14T10:53:54;6.30;99.90
15257;DHT22;7731;50.720;6.912;2023-12-14T10:56:25;6.40;99.90
15257;DHT22;7731;50.720;6.912;2023-12-14T10:58:56;6.30;99.90
15257;DHT22;7731;50.720;6.912;2023-12-14T11:01:32;6.30;99.90
15257;DHT22;7731;50.720;6.912;2023-12-14T11:04:06;6.20;99.90
15257;DHT22;7731;50.720;6.912;2023-12-14T11:06:40;6.10;99.90
15257;DHT22;7731;50.720;6.912;2023-12-14T11:09:17;6.20;99.90
15257;DHT22;7731;50.720;6.912;2023-12-14T11:11:56;6.10;99.90
15257;DHT22;7731;50.720;6.912;2023-12-14T11:14:28;6.30;99.90
15257;DHT22;7731;50.720;6.912;2023-12-14T11:17:06;6.30;99.90
15257;DHT22;7731;50.720;6.912;2023-12-14T11:19:40;6.50;99.90
15257;DHT22;7731;50.720;6.912;2023-12-14T11:22:23;6.70;99.90
15257;DHT22;7731;50.720;6.912;2023-12-14T11:24:55;6.90;99.90
15257;DHT22;7731;50.720;6.912;2023-12-14T11:27:30;6.80;99.90
15257;DHT22;7731;50.720;6.912;2023-12-14T11:30:02;6.80;99.90
15257;DHT22;7731;50.720;6.912;2023-12-14T11:32:39;6.90;99.90
15257;DHT22;7731;50.720;6.912;2023-12-14T11:35:10;6.90;99.90
15257;DHT22;7731;50.720;6.912;2023-12-14T11:37:40;7.00;99.90
15257;DHT22;7731;50.720;6.912;2023-12-14T11:40:14;7.10;99.90
15257;DHT22;7731;50.720;6.912;2023-12-14T11:42:57;7.10;99.90
15257;DHT22;7731;50.720;6.912;2023-12-14T11:45:29;7.00;99.90
15257;DHT22;7731;50.720;6.912;2023-12-14T11:48:02;6.90;99.90
15257;DHT22;7731;50.720;6.912;2023-12-14T11:50:34;6.70;99.90
15257;DHT22;7731;50.720;6.912;2023-12-14T11:53:06;6.80;99.90
15257;DHT22;7731;50.720;6.912;2023-12-14T11:55:39;6.80;99.90
15257;DHT22;7731;50.720;6.912;2023-12-14T11:58:12;6.80;99.90
15257;DHT22;7731;50.720;6.912;2023-12-14T12:00:44;6.70;99.90
15257;DHT22;7731;50.720;6.912;2023-12-14T12:03:18;6.60;99.90
15257;DHT22;7731;50.720;6.912;2023-12-14T12:05:51;6.70;99.90
15257;DHT22;7731;50.720;6.912;2023-12-14T12:08:24;6.60;99.90
15257;DHT22;7731;50.720;6.912;2023-12-14T12:10:55;6.60;99.90
15257;DHT22;7731;50.720;6.912;2023-12-14T12:13:27;6.70;99.90
15257;DHT22;7731;50.720;6.912;2023-12-14T12:15:58;6.60;99.90
15257;DHT22;7731;50.720;6.912;2023-12-14T12:18:30;6.60;99.90
15257;DHT22;7731;50.720;6.912;2023-12-14T12:21:06;6.50;99.90
15257;DHT22;7731;50.720;6.912;2023-12-14T12:23:37;6.60;99.90
15257;DHT22;7731;50.720;6.912;2023-12-14T12:26:11;6.80;99.90
15257;DHT22;7731;50.720;6.912;2023-12-14T12:28:41;6.80;99.90
15257;DHT22;7731;50.720;6.912;2023-12-14T12:31:15;6.80;99.90
15257;DHT22;7731;50.720;6.912;2023-12-14T12:33:52;6.70;99.90
15257;DHT22;7731;50.720;6.912;2023-12-14T12:36:22;6.60;99.90
15257;DHT22;7731;50.720;6.912;2023-12-14T12:38:54;6.50;99.90
15257;DHT22;7731;50.720;6.912;2023-12-14T12:41:24;6.70;99.90
15257;DHT22;7731;50.720;6.912;2023-12-14T12:43:54;6.70;99.90
15257;DHT22;7731;50.720;6.912;2023-12-14T12:46:26;6.50;99.90
15257;DHT22;7731;50.720;6.912;2023-12-14T12:49:00;6.60;99.90
15257;DHT22;7731;50.720;6.912;2023-12-14T12:51:32;6.50;99.90
15257;DHT22;7731;50.720;6.912;2023-12-14T12:54:02;6.50;99.90
15257;DHT22;7731;50.720;6.912;2023-12-14T12:56:39;6.50;99.90
15257;DHT22;7731;50.720;6.912;2023-12-14T12:59:10;6.70;99.90
15257;DHT22;7731;50.720;6.912;2023-12-14T13:01:44;6.60;99.90
15257;DHT22;7731;50.720;6.912;2023-12-14T13:04:23;6.50;99.90
15257;DHT22;7731;50.720;6.912;2023-12-14T13:06:55;6.60;99.90
15257;DHT22;7731;50.720;6.912;2023-12-14T13:09:29;6.60;99.90
15257;DHT22;7731;50.720;6.912;2023-12-14T13:12:00;6.60;99.90
15257;DHT22;7731;50.720;6.912;2023-12-14T13:14:31;6.60;99.90
15257;DHT22;7731;50.720;6.912;2023-12-14T13:17:01;6.70;99.90
15257;DHT22;7731;50.720;6.912;2023-12-14T13:19:35;6.70;99.90
15257;DHT22;7731;50.720;6.912;2023-12-14T13:22:05;6.60;99.90
15257;DHT22;7731;50.720;6.912;2023-12-14T13:24:38;6.60;99.90
15257;DHT22;7731;50.720;6.912;2023-12-14T13:27:09;6.50;99.90
15257;DHT22;7731;50.720;6.912;2023-12-14T13:29:39;6.40;99.90
15257;DHT22;7731;50.720;6.912;2023-12-14T13:32:10;6.30;99.90
15257;DHT22;7731;50.720;6.912;2023-12-14T13:34:45;6.40;99.90
15257;DHT22;7731;50.720;6.912;2023-12-14T13:37:16;6.40;99.90
15257;DHT22;7731;50.720;6.912;2023-12-14T13:39:47;6.30;99.90
15257;DHT22;7731;50.720;6.912;2023-12-14T13:42:19;6.30;99.90
15257;DHT22;7731;50.720;6.912;2023-12-14T13:44:50;6.40;99.90
15257;DHT22;7731;50.720;6.912;2023-12-14T13:47:23;6.50;99.90
15257;DHT22;7731;50.720;6.912;2023-12-14T13:49:56;6.50;99.90
15257;DHT22;7731;50.720;6.912;2023-12-14T13:52:26;6.40;99.90
15257;DHT22;7731;50.720;6.912;2023-12-14T13:54:57;6.20;99.90
15257;DHT22;7731;50.720;6.912;2023-12-14T13:57:28;6.30;99.90
15257;DHT22;7731;50.720;6.912;2023-12-14T13:59:59;6.20;99.90
15257;DHT22;7731;50.720;6.912;2023-12-14T14:02:29;6.20;99.90
15257;DHT22;7731;50.720;6.912;2023-12-14T14:05:04;6.20;99.90
15257;DHT22;7731;50.720;6.912;2023-12-14T14:07:35;6.10;99.90
15257;DHT22;7731;50.720;6.912;2023-12-14T14:10:08;6.10;99.90
15257;DHT22;7731;50.720;6.912;2023-12-14T14:12:41;6.10;99.90
15257;DHT22;7731;50.720;6.912;2023-12-14T14:15:11;6.10;99.90
15257;DHT22;7731;50.720;6.912;2023-12-14T14:17:41;6.10;99.90
15257;DHT22;7731;50.720;6.912;2023-12-14T14:20:15;6.00;99.90
15257;DHT22;7731;50.720;6.912;2023-12-14T14:22:45;5.90;99.90
15257;DHT22;7731;50.720;6.912;2023-12-14T14:25:16;6.10;99.90
15257;DHT22;7731;50.720;6.912;2023-12-14T14:27:46;6.00;99.90
15257;DHT22;7731;50.720;6.912;2023-12-14T14:30:17;6.10;99.90
15257;DHT22;7731;50.720;6.912;2023-12-14T14:32:47;6.10;99.90
15257;DHT22;7731;50.720;6.912;2023-12-14T14:35:21;6.20;99.90
15257;DHT22;7731;50.720;6.912;2023-12-14T14:37:52;6.30;99.90
15257;DHT22;7731;50.720;6.912;2023-12-14T14:40:23;6.50;99.90
15257;DHT22;7731;50.720;6.912;2023-12-14T14:42:53;6.50;99.90
15257;DHT22;7731;50.720;6.912;2023-12-14T14:45:24;6.30;99.90
15257;DHT22;7731;50.720;6.912;2023-12-14T14:47:54;6.10;99.90
15257;DHT22;7731;50.720;6.912;2023-12-14T14:50:27;6.10;99.90
15257;DHT22;7731;50.720;6.912;2023-12-14T14:52:58;6.20;99.90
15257;DHT22;7731;50.720;6.912;2023-12-14T14:55:29;6.40;99.90
15257;DHT22;7731;50.720;6.912;2023-12-14T14:58:00;6.20;99.90
15257;DHT22;7731;50.720;6.912;2023-12-14T15:00:30;6.30;99.90
15257;DHT22;7731;50.720;6.912;2023-12-14T15:03:06;6.20;99.90
15257;DHT22;7731;50.720;6.912;2023-12-14T15:05:39;6.20;99.90
15257;DHT22;7731;50.720;6.912;2023-12-14T15:08:10;6.10;99.90
15257;DHT22;7731;50.720;6.912;2023-12-14T15:10:40;6.10;99.90
15257;DHT22;7731;50.720;6.912;2023-12-14T15:13:11;6.00;99.90
15257;DHT22;7731;50.720;6.912;2023-12-14T15:15:42;6.00;99.90
15257;DHT22;7731;50.720;6.912;2023-12-14T15:18:14;6.00;99.90
15257;DHT22;7731;50.720;6.912;2023-12-14T15:20:48;6.00;99.90
15257;DHT22;7731;50.720;6.912;2023-12-14T15:23:21;5.90;99.90
15257;DHT22;7731;50.720;6.912;2023-12-14T15:25:51;6.00;99.90
15257;DHT22;7731;50.720;6.912;2023-12-14T15:28:21;6.00;99.90
15257;DHT22;7731;50.720;6.912;2023-12-14T15:30:54;6.00;99.90
15257;DHT22;7731;50.720;6.912;2023-12-14T15:33:24;5.90;99.90
15257;DHT22;7731;50.720;6.912;2023-12-14T15:35:57;5.90;99.90
15257;DHT22;7731;50.720;6.912;2023-12-14T15:38:28;5.90;99.90
15257;DHT22;7731;50.720;6.912;2023-12-14T15:41:00;5.90;99.90
15257;DHT22;7731;50.720;6.912;2023-12-14T15:43:30;5.90;99.90
15257;DHT22;7731;50.720;6.912;2023-12-14T15:46:01;6.00;99.90
15257;DHT22;7731;50.720;6.912;2023-12-14T15:48:31;5.90;99.90
15257;DHT22;7731;50.720;6.912;2023-12-14T15:51:06;5.90;99.90
15257;DHT22;7731;50.720;6.912;2023-12-14T15:53:37;5.90;99.90
15257;DHT22;7731;50.720;6.912;2023-12-14T15:56:08;5.70;99.90
15257;DHT22;7731;50.720;6.912;2023-12-14T15:58:41;5.80;99.90
15257;DHT22;7731;50.720;6.912;2023-12-14T16:01:12;6.00;99.90
15257;DHT22;7731;50.720;6.912;2023-12-14T16:03:46;5.90;99.90
15257;DHT22;7731;50.720;6.912;2023-12-14T16:06:19;5.90;99.90
15257;DHT22;7731;50.720;6.912;2023-12-14T16:08:52;5.80;99.90
15257;DHT22;7731;50.720;6.912;2023-12-14T16:11:22;5.80;99.90
15257;DHT22;7731;50.720;6.912;2023-12-14T16:13:54;5.90;99.90
15257;DHT22;7731;50.720;6.912;2023-12-14T16:16:26;6.00;99.90
15257;DHT22;7731;50.720;6.912;2023-12-14T16:18:56;6.00;99.90
15257;DHT22;7731;50.720;6.912;2023-12-14T16:21:31;6.20;99.90
15257;DHT22;7731;50.720;6.912;2023-12-14T16:24:04;6.20;99.90
15257;DHT22;7731;50.720;6.912;2023-12-14T16:26:35;6.20;99.90
15257;DHT22;7731;50.720;6.912;2023-12-14T16:29:09;6.20;99.90
15257;DHT22;7731;50.720;6.912;2023-12-14T16:31:42;6.10;99.90